Weather at Saltspring Island Airport [CLOSED]

Public forecast

Using degrees Celsius for public forecast. Weather courtesy of forecast.io.

Closest aviation weather report (METAR) to Saltspring Island Airport

Closest report is Victoria International Airport, 7.3 nm (13.6 km) SSE.

2024/05/18 23:00 (retrieved 18 minutes ago)

CYYJ 182300Z 33007KT 20SM -SHRA FEW025TCU BKN048 10/10 A3006 RMK TCU2SC5 VIS LWR E SLP183

Closest aviation forecast (TAF) to Saltspring Island Airport

Closest forecast is Victoria International Airport, 7.3 nm (13.6 km) SSE.

2024/05/18 20:41 Ammendment (retrieved 3 hours ago)

TAF AMD CYYJ 182037Z 1820/1918 07010KT P6SM FEW025 BKN140 TEMPO 1820/1903 5SM -SHRA BR BKN020 FM190300 22007KT P6SM SCT050 BECMG 1904/1906 20007KT FM190900 19006KT P6SM BKN030 TEMPO 1909/1918 P6SM -SHRA BKN020 RMK NXT FCST BY 190000Z